Time;durP1;ratioP1;P1;durP2;ratioP2;P2;SDS_P1;SDS_P2;PMS_P1;PMS_P2;Temp;Humidity;BMP_temperature;BMP_pressure;BME280_temperature;BME280_humidity;BME280_pressure;Samples;Min_cycle;Max_cycle;Signal;HPM_P1;HPM_P2
2022/12/29 00:01:47;;;;;;;;;;;10.40;99.90;;;;;;5093629;28;19916;-63
2022/12/29 00:04:13;;;;;;;;;;;10.40;99.90;;;;;;5093713;28;20267;-63
2022/12/29 00:06:39;;;;;;;;;;;10.40;99.90;;;;;;5093970;28;19940;-63
2022/12/29 00:09:04;;;;;;;;;;;10.40;99.90;;;;;;5075774;28;20308;-63
2022/12/29 00:11:30;;;;;;;;;;;10.50;99.90;;;;;;5093668;28;19955;-63
2022/12/29 00:16:42;;;;;;;;;;;10.40;99.90;;;;;;5078344;28;19908;-62
2022/12/29 00:35:07;;;;;;;;;;;10.50;99.90;;;;;;5093613;28;20262;-62
2022/12/29 00:35:47;;;;;;;;;;;10.50;99.90;;;;;;5093238;28;19916;-62
2022/12/29 00:44:15;;;;;;;;;;;10.70;99.90;;;;;;5093180;28;19908;-62
2022/12/29 00:46:29;;;;;;;;;;;10.70;99.90;;;;;;5078128;28;19953;-63
2022/12/29 00:51:40;;;;;;;;;;;10.70;99.90;;;;;;5093097;28;20281;-63
2022/12/29 00:54:06;;;;;;;;;;;10.80;99.90;;;;;;5093548;28;19908;-62
2022/12/29 00:56:31;;;;;;;;;;;10.80;99.90;;;;;;5093247;28;19908;-62
2022/12/29 00:59:01;;;;;;;;;;;10.80;99.90;;;;;;5093228;28;19912;-63
2022/12/29 01:01:26;;;;;;;;;;;10.80;99.90;;;;;;5092948;28;19928;-63
2022/12/29 01:03:52;;;;;;;;;;;10.90;99.90;;;;;;5093188;28;19908;-63
2022/12/29 01:06:17;;;;;;;;;;;11.00;99.90;;;;;;5093157;28;20001;-62
2022/12/29 01:08:43;;;;;;;;;;;11.00;99.90;;;;;;5095690;28;19912;-63
2022/12/29 01:11:10;;;;;;;;;;;11.10;99.90;;;;;;5097051;28;19914;-62
2022/12/29 01:13:37;;;;;;;;;;;11.10;99.90;;;;;;5096787;28;19908;-62
2022/12/29 01:16:04;;;;;;;;;;;11.10;99.90;;;;;;5096718;28;20377;-62
2022/12/29 01:18:29;;;;;;;;;;;11.10;99.90;;;;;;5096649;28;19931;-62
2022/12/29 01:20:59;;;;;;;;;;;11.10;99.90;;;;;;5096572;28;19916;-62
2022/12/29 01:23:25;;;;;;;;;;;11.20;99.90;;;;;;5096643;28;19953;-63
2022/12/29 01:25:50;;;;;;;;;;;11.10;99.90;;;;;;5096475;28;19909;-63
2022/12/29 01:28:16;;;;;;;;;;;11.10;99.90;;;;;;5096490;28;20419;-62
2022/12/29 01:30:41;;;;;;;;;;;11.10;99.90;;;;;;5078366;28;20003;-63
2022/12/29 01:33:07;;;;;;;;;;;11.10;99.90;;;;;;5096376;28;19919;-62
2022/12/29 01:35:32;;;;;;;;;;;11.00;99.90;;;;;;5096308;28;19908;-63
2022/12/29 01:37:57;;;;;;;;;;;11.00;99.90;;;;;;5096302;28;19909;-62
2022/12/29 01:40:23;;;;;;;;;;;11.00;99.90;;;;;;5096425;28;20010;-62
2022/12/29 01:42:48;;;;;;;;;;;11.00;99.90;;;;;;5078175;28;19908;-63
2022/12/29 01:45:15;;;;;;;;;;;11.00;99.90;;;;;;5096101;28;19915;-62
2022/12/29 01:47:44;;;;;;;;;;;11.00;99.90;;;;;;5096119;28;19908;-63
2022/12/29 01:50:13;;;;;;;;;;;10.90;99.90;;;;;;5096038;28;19957;-62
2022/12/29 01:52:41;;;;;;;;;;;10.90;99.90;;;;;;5077991;28;20003;-62
2022/12/29 01:55:08;;;;;;;;;;;10.90;99.90;;;;;;5095983;28;19914;-62
2022/12/29 01:57:36;;;;;;;;;;;10.90;99.90;;;;;;5095919;28;19914;-62
2022/12/29 02:00:04;;;;;;;;;;;10.90;99.90;;;;;;5095574;28;19920;-62
2022/12/29 02:02:30;;;;;;;;;;;11.00;99.90;;;;;;5096048;28;20011;-62
2022/12/29 02:04:57;;;;;;;;;;;11.10;99.90;;;;;;5095848;28;19912;-63
2022/12/29 02:07:24;;;;;;;;;;;11.00;99.90;;;;;;5095697;28;20008;-62
2022/12/29 02:09:50;;;;;;;;;;;11.00;99.90;;;;;;5095705;28;19953;-63
2022/12/29 02:12:17;;;;;;;;;;;11.10;99.90;;;;;;5095775;28;20002;-62
2022/12/29 02:14:43;;;;;;;;;;;11.10;99.90;;;;;;5095564;28;19908;-62
2022/12/29 02:17:15;;;;;;;;;;;11.10;99.90;;;;;;5095500;28;19914;-63
2022/12/29 02:19:53;;;;;;;;;;;11.10;99.90;;;;;;5095478;28;19914;-63
2022/12/29 02:22:25;;;;;;;;;;;11.10;99.90;;;;;;5095432;28;19928;-63
2022/12/29 02:25:00;;;;;;;;;;;11.10;99.90;;;;;;5095352;28;19908;-62
2022/12/29 02:27:31;;;;;;;;;;;11.20;99.90;;;;;;5095326;28;19908;-63
2022/12/29 02:30:17;;;;;;;;;;;11.30;99.90;;;;;;5077098;28;19908;-63
2022/12/29 02:32:46;;;;;;;;;;;11.30;99.90;;;;;;5076978;28;19908;-62
2022/12/29 02:35:32;;;;;;;;;;;11.30;99.90;;;;;;5095204;28;19916;-63
2022/12/29 02:38:17;;;;;;;;;;;11.30;99.90;;;;;;5095088;28;20004;-63
2022/12/29 02:40:46;;;;;;;;;;;11.30;99.90;;;;;;5094745;28;19912;-62
2022/12/29 02:43:15;;;;;;;;;;;11.40;99.90;;;;;;5076873;28;20384;-62
2022/12/29 02:46:00;;;;;;;;;;;11.40;99.90;;;;;;5095026;28;20126;-63
2022/12/29 02:48:34;;;;;;;;;;;11.50;99.90;;;;;;5094834;28;19940;-62
2022/12/29 02:51:03;;;;;;;;;;;11.50;99.90;;;;;;5094889;28;19908;-62
2022/12/29 02:56:15;;;;;;;;;;;11.40;99.90;;;;;;5094629;28;19908;-62
2022/12/29 02:58:40;;;;;;;;;;;11.50;99.90;;;;;;5094736;28;20383;-63
2022/12/29 03:01:26;;;;;;;;;;;11.40;99.90;;;;;;5094524;28;20454;-62
2022/12/29 03:04:11;;;;;;;;;;;11.50;99.90;;;;;;5094599;28;20385;-63
2022/12/29 03:06:51;;;;;;;;;;;11.50;99.90;;;;;;5094476;28;19908;-62
2022/12/29 03:09:37;;;;;;;;;;;11.50;99.90;;;;;;5094582;28;19912;-63
2022/12/29 03:12:22;;;;;;;;;;;11.60;99.90;;;;;;5094383;28;19924;-63
2022/12/29 03:17:48;;;;;;;;;;;11.60;99.90;;;;;;5094196;28;19908;-62
2022/12/29 03:20:16;;;;;;;;;;;11.50;99.90;;;;;;5094252;28;19908;-62
2022/12/29 03:22:43;;;;;;;;;;;11.50;99.90;;;;;;5094577;28;20373;-62
2022/12/29 03:25:20;;;;;;;;;;;11.50;99.90;;;;;;5094271;28;20304;-63
2022/12/29 03:27:49;;;;;;;;;;;11.60;99.90;;;;;;5094524;28;19908;-62
2022/12/29 03:30:14;;;;;;;;;;;11.50;99.90;;;;;;5075659;28;20369;-62
2022/12/29 03:32:50;;;;;;;;;;;11.50;99.90;;;;;;5094139;28;19908;-62
2022/12/29 03:35:17;;;;;;;;;;;11.50;99.90;;;;;;5094135;28;20359;-62
2022/12/29 03:37:45;;;;;;;;;;;11.50;99.90;;;;;;5094360;28;19995;-63
2022/12/29 03:40:11;;;;;;;;;;;11.40;99.90;;;;;;5094195;28;19930;-62
2022/12/29 03:42:38;;;;;;;;;;;11.50;99.90;;;;;;5094006;28;20358;-62
2022/12/29 03:45:04;;;;;;;;;;;11.60;99.90;;;;;;5094021;28;20006;-62
2022/12/29 03:47:29;;;;;;;;;;;11.70;99.90;;;;;;5094194;28;19908;-62
2022/12/29 03:49:55;;;;;;;;;;;11.60;99.90;;;;;;5093915;28;19908;-62
2022/12/29 03:52:20;;;;;;;;;;;11.70;99.90;;;;;;5093890;28;20003;-62
2022/12/29 03:54:46;;;;;;;;;;;11.70;99.90;;;;;;5093805;28;20378;-62
2022/12/29 03:57:12;;;;;;;;;;;11.80;99.90;;;;;;5094061;28;19946;-62
2022/12/29 03:59:37;;;;;;;;;;;11.70;99.90;;;;;;5075669;28;20397;-62
2022/12/29 04:02:03;;;;;;;;;;;11.80;99.90;;;;;;5093725;28;19912;-62
2022/12/29 04:04:28;;;;;;;;;;;11.80;99.90;;;;;;5093754;28;19999;-62
2022/12/29 04:06:54;;;;;;;;;;;11.80;99.90;;;;;;5093750;28;19912;-62
2022/12/29 04:09:19;;;;;;;;;;;11.60;99.90;;;;;;5093957;28;19914;-62
2022/12/29 04:11:44;;;;;;;;;;;11.60;99.90;;;;;;5093679;28;20365;-62
2022/12/29 04:14:10;;;;;;;;;;;11.60;99.90;;;;;;5093653;28;19908;-62
2022/12/29 04:16:38;;;;;;;;;;;11.50;99.90;;;;;;5093678;28;19957;-62
2022/12/29 04:19:05;;;;;;;;;;;11.40;99.90;;;;;;5093561;28;19908;-62
2022/12/29 04:21:31;;;;;;;;;;;11.30;99.90;;;;;;5093518;28;19912;-62
2022/12/29 04:23:56;;;;;;;;;;;11.10;99.90;;;;;;5093563;28;20384;-63
2022/12/29 04:26:22;;;;;;;;;;;11.00;99.90;;;;;;5093554;28;19916;-62
2022/12/29 04:28:47;;;;;;;;;;;10.90;99.90;;;;;;5093533;28;20024;-62
2022/12/29 04:31:13;;;;;;;;;;;10.90;99.90;;;;;;5093470;28;19908;-62
2022/12/29 04:33:38;;;;;;;;;;;10.90;99.90;;;;;;5075523;28;19915;-63
2022/12/29 04:36:04;;;;;;;;;;;10.90;99.90;;;;;;5075445;28;20273;-62
2022/12/29 04:38:29;;;;;;;;;;;10.90;99.90;;;;;;5093436;28;19953;-63
2022/12/29 04:40:54;;;;;;;;;;;10.80;99.90;;;;;;5093367;28;19919;-63
2022/12/29 04:43:21;;;;;;;;;;;10.90;99.90;;;;;;5095511;28;19951;-62
2022/12/29 04:45:47;;;;;;;;;;;10.90;99.90;;;;;;5097581;28;19954;-62
2022/12/29 04:48:13;;;;;;;;;;;10.90;99.90;;;;;;5097284;28;19912;-63
2022/12/29 04:50:38;;;;;;;;;;;10.90;99.90;;;;;;5097478;28;19959;-62
2022/12/29 04:53:04;;;;;;;;;;;10.90;99.90;;;;;;5097173;28;19908;-63
2022/12/29 04:55:30;;;;;;;;;;;11.00;99.90;;;;;;5097156;28;19957;-62
2022/12/29 04:57:55;;;;;;;;;;;11.00;99.90;;;;;;5097079;28;19931;-63
2022/12/29 05:00:21;;;;;;;;;;;11.00;99.90;;;;;;5096842;28;20039;-63
2022/12/29 05:02:46;;;;;;;;;;;11.00;99.90;;;;;;5096960;28;19908;-62
2022/12/29 05:05:12;;;;;;;;;;;11.10;99.90;;;;;;5097199;28;20010;-63
2022/12/29 05:07:37;;;;;;;;;;;11.10;99.90;;;;;;5096928;28;20459;-62
2022/12/29 05:10:04;;;;;;;;;;;11.30;99.90;;;;;;5096853;28;19939;-62
2022/12/29 05:12:30;;;;;;;;;;;11.30;99.90;;;;;;5096810;28;19924;-62
2022/12/29 05:14:56;;;;;;;;;;;11.40;99.90;;;;;;5097030;28;19908;-62
2022/12/29 05:17:21;;;;;;;;;;;11.50;99.90;;;;;;5096719;28;19920;-62
2022/12/29 05:19:46;;;;;;;;;;;11.50;99.90;;;;;;5096940;28;19917;-62
2022/12/29 05:22:12;;;;;;;;;;;11.50;99.90;;;;;;5096548;28;19912;-62
2022/12/29 05:24:37;;;;;;;;;;;11.60;99.90;;;;;;5096607;28;20361;-62
2022/12/29 05:27:03;;;;;;;;;;;11.70;99.90;;;;;;5078487;28;20277;-63
2022/12/29 05:29:28;;;;;;;;;;;11.60;99.90;;;;;;5096477;28;19915;-63
2022/12/29 05:31:54;;;;;;;;;;;11.60;99.90;;;;;;5096716;28;19916;-63
2022/12/29 05:34:19;;;;;;;;;;;11.70;99.90;;;;;;5096381;28;19962;-62
2022/12/29 05:36:45;;;;;;;;;;;11.70;99.90;;;;;;5096608;28;19908;-63
2022/12/29 05:39:10;;;;;;;;;;;11.70;99.90;;;;;;5096320;28;19966;-62
2022/12/29 05:41:35;;;;;;;;;;;11.80;99.90;;;;;;5096128;28;19962;-62
2022/12/29 05:44:01;;;;;;;;;;;11.80;99.90;;;;;;5096180;28;19961;-62
2022/12/29 05:46:26;;;;;;;;;;;11.80;99.90;;;;;;5096151;28;20247;-62
2022/12/29 05:48:52;;;;;;;;;;;11.90;99.90;;;;;;5096100;28;19909;-62
2022/12/29 05:51:17;;;;;;;;;;;11.90;99.90;;;;;;5096053;28;19912;-62
2022/12/29 05:53:43;;;;;;;;;;;11.90;99.90;;;;;;5095733;28;19961;-62
2022/12/29 05:56:08;;;;;;;;;;;11.90;99.90;;;;;;5095984;28;19908;-62
2022/12/29 05:58:34;;;;;;;;;;;12.00;99.90;;;;;;5096212;28;19908;-63
2022/12/29 06:00:59;;;;;;;;;;;12.00;99.90;;;;;;5077560;28;19955;-63
2022/12/29 06:03:24;;;;;;;;;;;12.00;99.90;;;;;;5095840;28;20361;-62
2022/12/29 06:05:50;;;;;;;;;;;12.10;99.90;;;;;;5095814;28;19995;-62
2022/12/29 06:08:15;;;;;;;;;;;12.00;99.90;;;;;;5095725;28;19912;-63
2022/12/29 06:10:41;;;;;;;;;;;12.10;99.90;;;;;;5095949;28;19908;-63
2022/12/29 06:13:06;;;;;;;;;;;12.10;99.90;;;;;;5095978;28;20376;-63
2022/12/29 06:15:32;;;;;;;;;;;12.10;99.90;;;;;;5095838;28;19971;-63
2022/12/29 06:17:58;;;;;;;;;;;12.10;99.90;;;;;;5095513;28;19919;-63
2022/12/29 06:20:23;;;;;;;;;;;12.20;99.90;;;;;;5095457;28;19916;-62
2022/12/29 06:22:49;;;;;;;;;;;12.20;99.90;;;;;;5095428;28;19943;-62
2022/12/29 06:25:14;;;;;;;;;;;12.30;99.90;;;;;;5095638;28;19943;-62
2022/12/29 06:27:40;;;;;;;;;;;12.20;99.90;;;;;;5077235;28;19920;-62
2022/12/29 06:30:06;;;;;;;;;;;12.10;99.90;;;;;;5095295;28;19915;-62
2022/12/29 06:32:31;;;;;;;;;;;12.00;99.90;;;;;;5095235;28;19915;-62
2022/12/29 06:34:57;;;;;;;;;;;11.80;99.90;;;;;;5095277;28;19912;-64
2022/12/29 06:37:22;;;;;;;;;;;11.70;99.90;;;;;;5077118;28;20007;-62
2022/12/29 06:39:47;;;;;;;;;;;11.50;99.90;;;;;;5095140;28;19919;-62
2022/12/29 06:42:13;;;;;;;;;;;11.50;99.90;;;;;;5094986;28;19912;-63
2022/12/29 06:44:38;;;;;;;;;;;11.50;99.90;;;;;;5094998;28;19908;-63
2022/12/29 06:47:04;;;;;;;;;;;11.40;99.90;;;;;;5095024;28;19908;-63
2022/12/29 06:49:29;;;;;;;;;;;11.40;99.90;;;;;;5094914;28;19908;-63
2022/12/29 06:51:55;;;;;;;;;;;11.40;99.90;;;;;;5094988;28;20398;-64
2022/12/29 06:54:20;;;;;;;;;;;11.50;99.90;;;;;;5094860;28;19908;-62
2022/12/29 06:56:45;;;;;;;;;;;11.40;99.90;;;;;;5094780;28;19914;-62
2022/12/29 06:59:11;;;;;;;;;;;11.30;99.90;;;;;;5076404;28;19908;-63
2022/12/29 07:01:36;;;;;;;;;;;11.40;99.90;;;;;;5094661;28;19908;-63
2022/12/29 07:04:02;;;;;;;;;;;11.40;99.90;;;;;;5094634;28;20319;-63
2022/12/29 07:06:28;;;;;;;;;;;11.40;99.90;;;;;;5093922;28;19912;-63
2022/12/29 07:08:54;;;;;;;;;;;11.30;99.90;;;;;;5094849;28;19912;-62
2022/12/29 07:11:21;;;;;;;;;;;11.30;99.90;;;;;;5094800;28;19912;-62
2022/12/29 07:13:46;;;;;;;;;;;11.30;99.90;;;;;;5094526;28;20379;-63
2022/12/29 07:16:12;;;;;;;;;;;11.30;99.90;;;;;;5094396;28;20019;-63
2022/12/29 07:18:38;;;;;;;;;;;11.30;99.90;;;;;;5094632;28;19912;-63
2022/12/29 07:21:03;;;;;;;;;;;11.40;99.90;;;;;;5094223;28;19912;-63
2022/12/29 07:23:29;;;;;;;;;;;11.50;99.90;;;;;;5094540;28;19915;-63
2022/12/29 07:26:02;;;;;;;;;;;11.50;99.90;;;;;;5094284;28;20450;-63
2022/12/29 07:28:28;;;;;;;;;;;11.50;99.90;;;;;;5094468;28;20335;-63
2022/12/29 07:30:54;;;;;;;;;;;11.60;99.90;;;;;;5094465;28;19965;-63
2022/12/29 07:33:19;;;;;;;;;;;11.50;99.90;;;;;;5094118;28;19958;-62
2022/12/29 07:35:45;;;;;;;;;;;11.50;99.90;;;;;;5094063;28;19908;-63
2022/12/29 07:38:10;;;;;;;;;;;11.50;99.90;;;;;;5076029;28;20006;-62
2022/12/29 07:40:36;;;;;;;;;;;11.50;99.90;;;;;;5093923;28;20007;-63
2022/12/29 07:43:02;;;;;;;;;;;11.50;99.90;;;;;;5093905;28;19930;-63
2022/12/29 07:45:27;;;;;;;;;;;11.50;99.90;;;;;;5075953;28;19920;-63
2022/12/29 07:47:52;;;;;;;;;;;11.40;99.90;;;;;;5094210;28;19932;-63
2022/12/29 07:50:18;;;;;;;;;;;11.30;99.90;;;;;;5093824;28;19908;-63
2022/12/29 07:52:44;;;;;;;;;;;11.20;99.90;;;;;;5093841;28;19915;-62
2022/12/29 07:55:10;;;;;;;;;;;11.10;99.90;;;;;;5094014;28;19929;-63
2022/12/29 07:57:35;;;;;;;;;;;11.00;99.90;;;;;;5094005;28;19932;-62
2022/12/29 08:00:01;;;;;;;;;;;11.10;99.90;;;;;;5093672;28;19920;-62
2022/12/29 08:02:26;;;;;;;;;;;11.20;99.90;;;;;;5075486;28;19912;-63
2022/12/29 08:04:52;;;;;;;;;;;11.10;99.90;;;;;;5093801;28;20415;-63
2022/12/29 08:07:17;;;;;;;;;;;11.20;99.90;;;;;;5093993;28;19919;-62
2022/12/29 08:09:43;;;;;;;;;;;11.30;99.90;;;;;;5093713;28;19908;-63
2022/12/29 08:12:09;;;;;;;;;;;11.30;99.90;;;;;;5093413;28;19915;-64
2022/12/29 08:14:35;;;;;;;;;;;11.30;99.90;;;;;;5092436;28;19912;-62
2022/12/29 08:17:01;;;;;;;;;;;11.40;99.90;;;;;;5094189;28;19919;-63
2022/12/29 08:19:26;;;;;;;;;;;11.40;99.90;;;;;;5097848;28;20287;-64
2022/12/29 08:21:52;;;;;;;;;;;11.40;99.90;;;;;;5098558;28;21127;-62
2022/12/29 08:24:18;;;;;;;;;;;11.40;99.90;;;;;;5097574;28;20289;-62
2022/12/29 08:26:43;;;;;;;;;;;11.50;99.90;;;;;;5097574;28;19908;-62
2022/12/29 08:29:09;;;;;;;;;;;11.50;99.90;;;;;;5097385;28;19908;-62
2022/12/29 08:31:34;;;;;;;;;;;11.60;99.90;;;;;;5104437;28;19920;-62
2022/12/29 08:34:01;;;;;;;;;;;11.60;99.90;;;;;;5096756;28;20003;-62
2022/12/29 08:36:26;;;;;;;;;;;11.60;99.90;;;;;;5096286;28;19912;-64
2022/12/29 08:38:52;;;;;;;;;;;11.60;99.90;;;;;;5078598;28;19931;-62
2022/12/29 08:41:17;;;;;;;;;;;11.60;99.90;;;;;;5097096;28;19922;-62
2022/12/29 08:43:45;;;;;;;;;;;11.50;99.90;;;;;;5078794;28;19920;-64
2022/12/29 08:46:11;;;;;;;;;;;11.60;99.90;;;;;;5096964;28;19957;-62
2022/12/29 08:48:36;;;;;;;;;;;11.50;99.90;;;;;;5078450;28;20315;-63
2022/12/29 08:51:02;;;;;;;;;;;11.50;99.90;;;;;;5096585;28;19912;-63
2022/12/29 08:53:27;;;;;;;;;;;11.60;99.90;;;;;;5078665;28;19916;-63
2022/12/29 08:55:55;;;;;;;;;;;11.60;99.90;;;;;;5096545;28;19912;-62
2022/12/29 08:58:21;;;;;;;;;;;11.70;99.90;;;;;;5096471;28;20377;-62
2022/12/29 09:00:46;;;;;;;;;;;11.70;99.90;;;;;;5096588;28;19920;-63
2022/12/29 09:03:12;;;;;;;;;;;11.70;99.90;;;;;;5096688;28;19908;-64
2022/12/29 09:05:37;;;;;;;;;;;12.20;99.90;;;;;;5096402;28;20377;-62
2022/12/29 09:08:04;;;;;;;;;;;12.90;99.90;;;;;;5096285;28;19963;-63
2022/12/29 09:10:29;;;;;;;;;;;12.80;99.90;;;;;;5096375;28;19913;-64
2022/12/29 09:12:55;;;;;;;;;;;12.40;99.90;;;;;;5096129;28;20285;-62
2022/12/29 09:15:20;;;;;;;;;;;12.10;99.90;;;;;;5095784;28;20011;-63
2022/12/29 09:17:46;;;;;;;;;;;12.00;99.90;;;;;;5096225;28;19908;-62
2022/12/29 09:20:12;;;;;;;;;;;11.90;99.90;;;;;;5095674;28;19912;-62
2022/12/29 09:22:38;;;;;;;;;;;11.70;99.90;;;;;;5096502;28;19939;-62
2022/12/29 09:25:03;;;;;;;;;;;11.70;99.90;;;;;;5095772;28;20366;-63
2022/12/29 09:27:29;;;;;;;;;;;11.60;99.90;;;;;;5096250;28;19991;-63
2022/12/29 09:29:55;;;;;;;;;;;11.60;99.90;;;;;;5095870;28;20376;-63
2022/12/29 09:32:21;;;;;;;;;;;11.50;99.90;;;;;;5078089;28;19908;-63
2022/12/29 09:34:46;;;;;;;;;;;11.50;99.90;;;;;;5096080;28;19908;-64
2022/12/29 09:37:12;;;;;;;;;;;11.50;99.90;;;;;;5096294;28;19916;-63
2022/12/29 09:39:37;;;;;;;;;;;11.50;99.90;;;;;;5096422;28;19962;-63
2022/12/29 09:42:07;;;;;;;;;;;11.60;99.90;;;;;;5096116;28;19913;-63
2022/12/29 09:44:52;;;;;;;;;;;12.20;99.90;;;;;;5096063;28;20011;-63
2022/12/29 09:47:18;;;;;;;;;;;13.20;99.90;;;;;;5095922;28;19916;-63
2022/12/29 09:49:49;;;;;;;;;;;13.40;99.90;;;;;;5095997;28;19915;-63
2022/12/29 09:52:16;;;;;;;;;;;13.70;99.90;;;;;;5095920;28;20047;-62
2022/12/29 09:54:48;;;;;;;;;;;13.80;99.90;;;;;;5095997;28;20388;-62
2022/12/29 09:57:16;;;;;;;;;;;14.20;99.90;;;;;;5077678;28;19908;-62
2022/12/29 09:59:43;;;;;;;;;;;14.20;99.90;;;;;;5095554;28;19956;-63
2022/12/29 10:02:29;;;;;;;;;;;14.00;99.90;;;;;;5095958;28;20338;-63
2022/12/29 10:04:54;;;;;;;;;;;13.70;99.90;;;;;;5096715;28;20278;-65
2022/12/29 10:07:40;;;;;;;;;;;13.60;99.90;;;;;;5074285;28;19918;-62
2022/12/29 10:10:25;;;;;;;;;;;13.80;99.90;;;;;;5104532;28;19915;-63
2022/12/29 10:12:57;;;;;;;;;;;13.80;99.90;;;;;;5108716;28;19915;-63
2022/12/29 10:15:42;;;;;;;;;;;13.10;99.90;;;;;;5111125;28;19915;-62
2022/12/29 10:18:18;;;;;;;;;;;12.80;99.90;;;;;;5110911;28;19916;-63
2022/12/29 10:21:03;;;;;;;;;;;12.40;99.90;;;;;;5081871;28;19962;-63
2022/12/29 10:23:35;;;;;;;;;;;12.30;99.90;;;;;;5091954;28;19915;-63
2022/12/29 10:26:02;;;;;;;;;;;12.20;99.90;;;;;;5087121;28;19946;-62
2022/12/29 10:28:35;;;;;;;;;;;12.20;99.90;;;;;;5108929;28;19915;-63
2022/12/29 10:31:03;;;;;;;;;;;12.10;99.90;;;;;;5097652;28;19908;-62
2022/12/29 10:33:34;;;;;;;;;;;12.00;99.90;;;;;;5077858;28;19923;-63
2022/12/29 10:36:02;;;;;;;;;;;11.90;99.90;;;;;;5088369;28;19908;-63
2022/12/29 10:38:34;;;;;;;;;;;11.90;99.90;;;;;;5101660;28;19919;-63
2022/12/29 10:41:02;;;;;;;;;;;11.90;99.90;;;;;;5110479;28;19912;-63
2022/12/29 10:43:29;;;;;;;;;;;11.90;99.90;;;;;;5100215;28;19908;-63
2022/12/29 10:45:57;;;;;;;;;;;11.90;99.90;;;;;;5106045;28;19915;-63
2022/12/29 10:48:25;;;;;;;;;;;11.90;99.90;;;;;;5089538;28;19908;-63
2022/12/29 10:50:51;;;;;;;;;;;11.90;99.90;;;;;;5098026;28;19999;-62
2022/12/29 10:53:21;;;;;;;;;;;11.80;99.90;;;;;;5111181;28;19908;-62
2022/12/29 10:55:47;;;;;;;;;;;11.80;99.90;;;;;;5103020;28;19916;-62
2022/12/29 10:58:13;;;;;;;;;;;11.80;99.90;;;;;;5094202;28;19912;-62
2022/12/29 11:00:38;;;;;;;;;;;11.90;99.90;;;;;;5096027;28;19920;-62
2022/12/29 11:03:11;;;;;;;;;;;12.10;99.90;;;;;;5097635;28;20283;-62
2022/12/29 11:05:39;;;;;;;;;;;12.10;99.90;;;;;;5092098;28;20404;-62
2022/12/29 11:08:09;;;;;;;;;;;12.10;99.90;;;;;;5105109;28;19908;-62
2022/12/29 11:10:40;;;;;;;;;;;12.10;99.90;;;;;;5099226;28;19919;-63
2022/12/29 11:13:15;;;;;;;;;;;12.00;99.90;;;;;;5091022;28;19908;-62
2022/12/29 11:15:42;;;;;;;;;;;12.00;99.90;;;;;;5094276;28;19908;-63
2022/12/29 11:21:03;;;;;;;;;;;11.90;99.90;;;;;;5093414;27;19912;-63
2022/12/29 11:23:31;;;;;;;;;;;11.80;99.90;;;;;;5107562;28;19962;-64
2022/12/29 11:26:16;;;;;;;;;;;11.80;99.90;;;;;;5098138;28;19908;-63
2022/12/29 11:28:44;;;;;;;;;;;11.80;99.90;;;;;;5097627;28;19916;-63
2022/12/29 11:31:10;;;;;;;;;;;11.80;99.90;;;;;;5107753;28;20384;-63
2022/12/29 11:33:36;;;;;;;;;;;11.80;99.90;;;;;;5095117;28;19908;-63
2022/12/29 11:36:04;;;;;;;;;;;11.80;99.90;;;;;;5103053;28;19912;-63
2022/12/29 11:38:34;;;;;;;;;;;11.80;99.90;;;;;;5102571;28;19930;-63
2022/12/29 11:40:59;;;;;;;;;;;11.70;99.90;;;;;;5094523;28;19916;-63
2022/12/29 11:43:33;;;;;;;;;;;11.70;99.90;;;;;;5090259;28;20011;-66
2022/12/29 11:45:59;;;;;;;;;;;11.70;99.90;;;;;;5087620;28;19913;-63
2022/12/29 11:48:26;;;;;;;;;;;11.70;99.90;;;;;;5090671;28;19916;-63
2022/12/29 11:50:53;;;;;;;;;;;11.70;99.90;;;;;;5089806;28;19933;-64
2022/12/29 11:53:21;;;;;;;;;;;11.60;99.90;;;;;;5088760;28;19948;-63
2022/12/29 11:55:55;;;;;;;;;;;11.70;99.90;;;;;;5089719;28;20009;-63
2022/12/29 11:58:28;;;;;;;;;;;11.60;99.90;;;;;;5090380;28;19909;-62
2022/12/29 12:00:54;;;;;;;;;;;11.60;99.90;;;;;;5089829;28;19916;-63
2022/12/29 12:03:23;;;;;;;;;;;11.60;99.90;;;;;;5089630;28;20280;-63
2022/12/29 12:05:52;;;;;;;;;;;11.70;99.90;;;;;;5089587;28;19912;-63
2022/12/29 12:08:28;;;;;;;;;;;11.70;99.90;;;;;;5109366;28;20374;-63
2022/12/29 12:10:58;;;;;;;;;;;11.70;99.90;;;;;;5070505;28;20003;-62
2022/12/29 12:16:19;;;;;;;;;;;11.60;99.90;;;;;;5091155;27;19919;-62
2022/12/29 12:18:47;;;;;;;;;;;11.60;99.90;;;;;;5091127;28;20321;-63
2022/12/29 12:21:18;;;;;;;;;;;11.60;99.90;;;;;;5091223;28;19908;-63
2022/12/29 12:23:53;;;;;;;;;;;11.60;99.90;;;;;;5090885;28;19951;-63
2022/12/29 12:26:20;;;;;;;;;;;11.70;99.90;;;;;;5090925;28;19920;-62
2022/12/29 12:28:49;;;;;;;;;;;11.60;99.90;;;;;;5090868;28;19939;-63
2022/12/29 12:31:18;;;;;;;;;;;11.60;99.90;;;;;;5090836;28;19912;-63
2022/12/29 12:33:46;;;;;;;;;;;11.60;99.90;;;;;;5090073;28;19912;-63
2022/12/29 12:36:31;;;;;;;;;;;11.60;99.90;;;;;;5116445;28;19977;-62
2022/12/29 12:39:17;;;;;;;;;;;11.60;99.90;;;;;;5090240;28;20294;-65
2022/12/29 12:41:50;;;;;;;;;;;11.60;99.90;;;;;;5090411;28;20389;-63
2022/12/29 12:44:27;;;;;;;;;;;11.60;99.90;;;;;;5090534;28;19913;-63
2022/12/29 12:47:08;;;;;;;;;;;11.60;99.90;;;;;;5090455;28;19962;-63
2022/12/29 12:49:37;;;;;;;;;;;11.60;99.90;;;;;;5090511;28;20005;-62
2022/12/29 12:52:19;;;;;;;;;;;11.50;99.90;;;;;;5090476;28;20369;-63
2022/12/29 12:55:01;;;;;;;;;;;11.50;99.90;;;;;;5090364;28;19920;-63
2022/12/29 12:57:33;;;;;;;;;;;11.50;99.90;;;;;;5089301;28;19916;-63
2022/12/29 13:00:02;;;;;;;;;;;11.50;99.90;;;;;;5090486;28;19920;-63
2022/12/29 13:02:37;;;;;;;;;;;11.40;99.90;;;;;;5090434;28;19956;-63
2022/12/29 13:05:08;;;;;;;;;;;11.40;99.90;;;;;;5089871;28;19912;-63
2022/12/29 13:07:44;;;;;;;;;;;11.40;99.90;;;;;;5088999;28;20290;-63
2022/12/29 13:10:16;;;;;;;;;;;11.40;99.90;;;;;;5090291;28;19908;-63
2022/12/29 13:12:55;;;;;;;;;;;11.40;99.90;;;;;;5088914;28;19920;-63
2022/12/29 13:15:29;;;;;;;;;;;11.40;99.90;;;;;;5087402;28;19924;-63
2022/12/29 13:17:59;;;;;;;;;;;11.30;99.90;;;;;;5089929;28;19915;-63
2022/12/29 13:20:35;;;;;;;;;;;11.30;99.90;;;;;;5089862;28;19912;-63
2022/12/29 13:23:05;;;;;;;;;;;11.30;99.90;;;;;;5089797;28;20384;-65
2022/12/29 13:25:51;;;;;;;;;;;11.30;99.90;;;;;;5088181;28;19918;-64
2022/12/29 13:28:23;;;;;;;;;;;11.30;99.90;;;;;;5075376;28;19920;-63
2022/12/29 13:31:08;;;;;;;;;;;11.30;99.90;;;;;;5063700;28;19912;-63
2022/12/29 13:33:43;;;;;;;;;;;11.30;99.90;;;;;;5059007;28;19920;-63
2022/12/29 13:36:17;;;;;;;;;;;11.30;99.90;;;;;;5076074;28;19955;-63
2022/12/29 13:38:45;;;;;;;;;;;11.30;99.90;;;;;;5075921;28;19967;-62
2022/12/29 13:41:14;;;;;;;;;;;11.30;99.90;;;;;;5074621;28;19926;-62
2022/12/29 13:43:41;;;;;;;;;;;11.30;99.90;;;;;;5075524;28;19920;-62
2022/12/29 13:46:09;;;;;;;;;;;11.30;99.90;;;;;;5075561;28;19920;-63
2022/12/29 13:48:38;;;;;;;;;;;11.20;99.90;;;;;;5074994;28;19958;-63
2022/12/29 13:51:04;;;;;;;;;;;11.20;99.90;;;;;;5075566;28;19999;-63
2022/12/29 13:53:42;;;;;;;;;;;11.20;99.90;;;;;;5076017;28;20400;-62
2022/12/29 13:56:12;;;;;;;;;;;11.20;99.90;;;;;;5075639;28;20289;-63
2022/12/29 13:58:44;;;;;;;;;;;11.20;99.90;;;;;;5075663;28;19908;-62
2022/12/29 14:01:17;;;;;;;;;;;11.10;99.90;;;;;;5075704;28;19908;-62
2022/12/29 14:06:28;;;;;;;;;;;11.10;99.90;;;;;;5070661;28;19916;-63
2022/12/29 14:08:56;;;;;;;;;;;11.10;99.90;;;;;;5068303;28;19920;-63
2022/12/29 14:11:24;;;;;;;;;;;11.10;99.90;;;;;;5080691;28;19960;-63
2022/12/29 14:13:50;;;;;;;;;;;11.10;99.90;;;;;;5053193;28;19913;-63
2022/12/29 14:16:25;;;;;;;;;;;11.10;99.90;;;;;;5049621;28;19913;-63
2022/12/29 14:18:51;;;;;;;;;;;11.10;99.90;;;;;;5050968;28;19909;-63
2022/12/29 14:21:19;;;;;;;;;;;11.00;99.90;;;;;;5050920;28;19909;-62
2022/12/29 14:23:46;;;;;;;;;;;10.90;99.90;;;;;;5050574;28;19962;-63
2022/12/29 14:26:31;;;;;;;;;;;10.70;99.90;;;;;;5050492;28;19913;-63
2022/12/29 14:29:14;;;;;;;;;;;10.70;99.90;;;;;;5050562;28;20330;-63
2022/12/29 14:31:40;;;;;;;;;;;10.70;99.90;;;;;;5049346;28;19944;-62
2022/12/29 14:37:03;;;;;;;;;;;10.70;99.90;;;;;;5152720;27;20287;-63
2022/12/29 14:39:45;;;;;;;;;;;10.70;99.90;;;;;;5134016;27;19961;-63
2022/12/29 14:44:50;;;;;;;;;;;10.70;99.90;;;;;;5091333;27;19913;-62
2022/12/29 14:47:19;;;;;;;;;;;10.80;99.90;;;;;;5091139;28;19966;-62
2022/12/29 14:49:45;;;;;;;;;;;10.70;99.90;;;;;;5091320;28;20004;-62
2022/12/29 14:52:20;;;;;;;;;;;10.80;99.90;;;;;;5091292;28;19951;-62
2022/12/29 14:54:49;;;;;;;;;;;10.70;99.90;;;;;;5091027;28;20297;-62
2022/12/29 14:57:19;;;;;;;;;;;10.70;99.90;;;;;;5091211;28;19957;-62
2022/12/29 14:59:45;;;;;;;;;;;10.70;99.90;;;;;;5090985;28;20372;-62
2022/12/29 15:02:16;;;;;;;;;;;10.70;99.90;;;;;;5090846;28;20396;-62
2022/12/29 15:04:42;;;;;;;;;;;10.70;99.90;;;;;;5089453;28;19978;-62
2022/12/29 15:07:09;;;;;;;;;;;10.70;99.90;;;;;;5090755;28;20290;-62
2022/12/29 15:09:38;;;;;;;;;;;10.70;99.90;;;;;;5090971;28;19909;-62